GAP2941 RPLL-RPME
Flight info
| Callsign | GAP2941 |
|---|---|
| Flight time | 1h 11m |
| Altitude | 33000 |
| Route | IPAT2V IPATA B462 TAC W9 BANWA |
| Aircraft | A320/M-L/L |
Departure
| Time | 2026-04-26 02:36 |
|---|---|
| Airport | Ninoy Aquino International Airport (RPLL) |
Arrival
| Time | 2026-04-26 03:47 |
|---|---|
| Airport | Bancasi Airport (RPME) |
| Time | Latitude | Longitude | Altitude | Speed | Heading |
|---|---|---|---|---|---|
| 2026-04-26 02:18 | 14.52396 | 121.00771 | 82 ft | 0 kts | 44° |
| 2026-04-26 02:27 | 14.52391 | 121.00765 | 82 ft | 2 kts | 44° |
| 2026-04-26 02:27 | 14.52380 | 121.00754 | 82 ft | 2 kts | 44° |
| 2026-04-26 02:27 | 14.52369 | 121.00743 | 82 ft | 2 kts | 44° |
| 2026-04-26 02:27 | 14.52358 | 121.00733 | 82 ft | 2 kts | 44° |
| 2026-04-26 02:28 | 14.52347 | 121.00722 | 82 ft | 2 kts | 44° |
| 2026-04-26 02:28 | 14.52340 | 121.00715 | 82 ft | 2 kts | 44° |
| 2026-04-26 02:28 | 14.52327 | 121.00708 | 82 ft | 2 kts | 8° |
| 2026-04-26 02:28 | 14.52312 | 121.00709 | 82 ft | 2 kts | 339° |
| 2026-04-26 02:29 | 14.52302 | 121.00714 | 82 ft | 0 kts | 317° |
| 2026-04-26 02:29 | 14.52297 | 121.00719 | 82 ft | 1 kts | 314° |
| 2026-04-26 02:29 | 14.52296 | 121.00720 | 82 ft | 0 kts | 314° |
| 2026-04-26 02:32 | 14.52298 | 121.00719 | 82 ft | 0 kts | 314° |
| 2026-04-26 02:32 | 14.52305 | 121.00710 | 82 ft | 2 kts | 314° |
| 2026-04-26 02:32 | 14.52327 | 121.00687 | 82 ft | 6 kts | 314° |
| 2026-04-26 02:33 | 14.52367 | 121.00647 | 82 ft | 9 kts | 315° |
| 2026-04-26 02:33 | 14.52422 | 121.00590 | 82 ft | 12 kts | 315° |
| 2026-04-26 02:33 | 14.52487 | 121.00524 | 82 ft | 13 kts | 315° |
| 2026-04-26 02:33 | 14.52540 | 121.00462 | 82 ft | 11 kts | 293° |
| 2026-04-26 02:34 | 14.52544 | 121.00382 | 82 ft | 11 kts | 265° |
| 2026-04-26 02:34 | 14.52538 | 121.00298 | 82 ft | 10 kts | 269° |
| 2026-04-26 02:34 | 14.52520 | 121.00252 | 82 ft | 5 kts | 194° |
| 2026-04-26 02:34 | 14.52485 | 121.00278 | 82 ft | 7 kts | 132° |
| 2026-04-26 02:35 | 14.52447 | 121.00319 | 82 ft | 8 kts | 134° |
| 2026-04-26 02:35 | 14.52402 | 121.00366 | 82 ft | 9 kts | 134° |
| 2026-04-26 02:35 | 14.52253 | 121.00520 | 82 ft | 70 kts | 135° |
| 2026-04-26 02:35 | 14.51702 | 121.01086 | 82 ft | 148 kts | 134° |
| 2026-04-26 02:36 | 14.50868 | 121.01949 | 421 ft | 181 kts | 134° |
| 2026-04-26 02:36 | 14.49976 | 121.02873 | 1159 ft | 190 kts | 133° |
| 2026-04-26 02:36 | 14.49050 | 121.03835 | 2119 ft | 193 kts | 133° |
| 2026-04-26 02:36 | 14.48111 | 121.04806 | 2933 ft | 204 kts | 133° |
| 2026-04-26 02:37 | 14.47060 | 121.05896 | 3672 ft | 222 kts | 133° |
| 2026-04-26 02:37 | 14.45960 | 121.07036 | 4295 ft | 226 kts | 133° |
| 2026-04-26 02:37 | 14.44786 | 121.08253 | 4590 ft | 248 kts | 133° |
| 2026-04-26 02:37 | 14.43565 | 121.09597 | 5016 ft | 265 kts | 129° |
| 2026-04-26 02:38 | 14.42435 | 121.11132 | 5637 ft | 272 kts | 122° |
| 2026-04-26 02:38 | 14.41394 | 121.12776 | 6402 ft | 274 kts | 121° |
| 2026-04-26 02:38 | 14.40361 | 121.14440 | 7144 ft | 277 kts | 122° |
| 2026-04-26 02:38 | 14.39329 | 121.16109 | 7864 ft | 280 kts | 122° |
| 2026-04-26 02:39 | 14.38273 | 121.17813 | 8567 ft | 284 kts | 122° |
| 2026-04-26 02:39 | 14.37197 | 121.19548 | 9251 ft | 288 kts | 122° |
| 2026-04-26 02:39 | 14.36142 | 121.21244 | 9888 ft | 291 kts | 122° |
| 2026-04-26 02:39 | 14.35036 | 121.23023 | 10460 ft | 298 kts | 122° |
| 2026-04-26 02:40 | 14.33877 | 121.24885 | 10783 ft | 315 kts | 123° |
| 2026-04-26 02:40 | 14.32663 | 121.26833 | 11119 ft | 329 kts | 123° |
| 2026-04-26 02:40 | 14.31414 | 121.28841 | 11655 ft | 335 kts | 123° |
| 2026-04-26 02:40 | 14.30153 | 121.30866 | 12239 ft | 339 kts | 123° |
| 2026-04-26 02:41 | 14.28863 | 121.32935 | 12815 ft | 343 kts | 123° |
| 2026-04-26 02:41 | 14.27561 | 121.35023 | 13386 ft | 347 kts | 123° |
| 2026-04-26 02:41 | 14.26261 | 121.37109 | 13963 ft | 349 kts | 123° |
| 2026-04-26 02:41 | 14.24941 | 121.39227 | 14514 ft | 353 kts | 123° |
| 2026-04-26 02:42 | 14.23614 | 121.41356 | 15030 ft | 356 kts | 123° |
| 2026-04-26 02:42 | 14.22251 | 121.43539 | 15557 ft | 359 kts | 123° |
| 2026-04-26 02:42 | 14.20910 | 121.45683 | 16059 ft | 362 kts | 123° |
| 2026-04-26 02:42 | 14.19535 | 121.47884 | 16536 ft | 365 kts | 123° |
| 2026-04-26 02:43 | 14.16755 | 121.52332 | 17473 ft | 372 kts | 123° |
| 2026-04-26 02:43 | 14.15350 | 121.54579 | 17937 ft | 374 kts | 123° |
| 2026-04-26 02:43 | 14.13949 | 121.56819 | 18390 ft | 377 kts | 123° |
| 2026-04-26 02:44 | 14.12508 | 121.59124 | 18845 ft | 379 kts | 123° |
| 2026-04-26 02:44 | 14.11062 | 121.61414 | 19284 ft | 381 kts | 126° |
| 2026-04-26 02:44 | 14.09395 | 121.63558 | 19722 ft | 383 kts | 134° |
| 2026-04-26 02:44 | 14.07508 | 121.65392 | 20148 ft | 384 kts | 142° |
| 2026-04-26 02:45 | 14.05370 | 121.67078 | 20575 ft | 386 kts | 145° |
| 2026-04-26 02:45 | 14.03197 | 121.68717 | 20974 ft | 389 kts | 145° |
| 2026-04-26 02:45 | 14.01068 | 121.70317 | 21353 ft | 391 kts | 145° |
| 2026-04-26 02:45 | 13.98937 | 121.71927 | 21721 ft | 394 kts | 145° |
| 2026-04-26 02:46 | 13.96692 | 121.73630 | 22110 ft | 397 kts | 145° |
| 2026-04-26 02:46 | 13.94485 | 121.75307 | 22503 ft | 399 kts | 145° |
| 2026-04-26 02:46 | 13.92241 | 121.77015 | 22894 ft | 401 kts | 145° |
| 2026-04-26 02:46 | 13.89976 | 121.78741 | 23275 ft | 403 kts | 145° |
| 2026-04-26 02:47 | 13.87752 | 121.80555 | 23643 ft | 405 kts | 140° |
| 2026-04-26 02:47 | 13.85667 | 121.82566 | 24007 ft | 408 kts | 135° |
| 2026-04-26 02:47 | 13.83746 | 121.84759 | 24367 ft | 411 kts | 131° |
| 2026-04-26 02:47 | 13.81883 | 121.87035 | 24716 ft | 413 kts | 131° |
| 2026-04-26 02:48 | 13.80053 | 121.89291 | 25051 ft | 415 kts | 131° |
| 2026-04-26 02:48 | 13.78182 | 121.91598 | 25377 ft | 417 kts | 131° |
| 2026-04-26 02:48 | 13.76323 | 121.93886 | 25696 ft | 419 kts | 131° |
| 2026-04-26 02:48 | 13.74456 | 121.96178 | 26009 ft | 421 kts | 131° |
| 2026-04-26 02:49 | 13.72563 | 121.98502 | 26308 ft | 423 kts | 131° |
| 2026-04-26 02:49 | 13.70674 | 122.00816 | 26599 ft | 425 kts | 131° |
| 2026-04-26 02:49 | 13.68762 | 122.03156 | 26895 ft | 427 kts | 131° |
| 2026-04-26 02:49 | 13.66833 | 122.05518 | 27187 ft | 429 kts | 132° |
| 2026-04-26 02:50 | 13.64917 | 122.07863 | 27466 ft | 431 kts | 132° |
| 2026-04-26 02:50 | 13.62991 | 122.10218 | 27746 ft | 433 kts | 132° |
| 2026-04-26 02:50 | 13.61044 | 122.12598 | 28034 ft | 434 kts | 132° |
| 2026-04-26 02:50 | 13.59081 | 122.14998 | 28308 ft | 436 kts | 132° |
| 2026-04-26 02:51 | 13.57138 | 122.17372 | 28560 ft | 438 kts | 132° |
| 2026-04-26 02:51 | 13.55157 | 122.19791 | 28835 ft | 439 kts | 132° |
| 2026-04-26 02:51 | 13.53186 | 122.22197 | 29113 ft | 441 kts | 132° |
| 2026-04-26 02:51 | 13.51226 | 122.24590 | 29388 ft | 442 kts | 132° |
| 2026-04-26 02:52 | 13.49217 | 122.27042 | 29668 ft | 444 kts | 132° |
| 2026-04-26 02:52 | 13.47242 | 122.29452 | 29926 ft | 446 kts | 132° |
| 2026-04-26 02:52 | 13.45224 | 122.31917 | 30178 ft | 447 kts | 132° |
| 2026-04-26 02:52 | 13.43226 | 122.34352 | 30426 ft | 449 kts | 132° |
| 2026-04-26 02:53 | 13.41204 | 122.36817 | 30698 ft | 450 kts | 132° |
| 2026-04-26 02:53 | 13.39179 | 122.39284 | 30966 ft | 451 kts | 132° |
| 2026-04-26 02:53 | 13.37173 | 122.41730 | 31222 ft | 453 kts | 132° |
| 2026-04-26 02:53 | 13.35126 | 122.44224 | 31483 ft | 454 kts | 132° |
| 2026-04-26 02:54 | 13.33079 | 122.46718 | 31736 ft | 455 kts | 132° |
| 2026-04-26 02:54 | 13.31062 | 122.49171 | 31981 ft | 456 kts | 132° |
| 2026-04-26 02:54 | 13.29008 | 122.51670 | 32211 ft | 457 kts | 132° |
| 2026-04-26 02:54 | 13.26932 | 122.54197 | 32438 ft | 458 kts | 132° |
| 2026-04-26 02:55 | 13.24857 | 122.56722 | 32655 ft | 460 kts | 132° |
| 2026-04-26 02:55 | 13.22774 | 122.59253 | 32884 ft | 461 kts | 132° |
| 2026-04-26 02:55 | 13.18555 | 122.64381 | 32935 ft | 461 kts | 132° |
| 2026-04-26 02:56 | 13.14395 | 122.69435 | 32936 ft | 461 kts | 132° |
| 2026-04-26 02:56 | 13.10233 | 122.74490 | 32936 ft | 461 kts | 133° |
| 2026-04-26 02:57 | 13.06080 | 122.79530 | 32936 ft | 461 kts | 132° |
| 2026-04-26 02:57 | 13.01950 | 122.84540 | 32936 ft | 460 kts | 133° |
| 2026-04-26 02:58 | 12.97826 | 122.89537 | 32936 ft | 459 kts | 133° |
| 2026-04-26 02:58 | 12.93681 | 122.94557 | 32940 ft | 459 kts | 132° |
| 2026-04-26 02:59 | 12.89658 | 122.99429 | 32936 ft | 459 kts | 132° |
| 2026-04-26 02:59 | 12.85481 | 123.04483 | 32938 ft | 459 kts | 132° |
| 2026-04-26 03:00 | 12.81342 | 123.09487 | 32934 ft | 458 kts | 132° |
| 2026-04-26 03:00 | 12.77216 | 123.14475 | 32937 ft | 458 kts | 132° |
| 2026-04-26 03:01 | 12.73104 | 123.19445 | 32930 ft | 457 kts | 132° |
| 2026-04-26 03:01 | 12.68970 | 123.24436 | 32925 ft | 456 kts | 132° |
| 2026-04-26 03:02 | 12.64862 | 123.29393 | 32925 ft | 456 kts | 132° |
| 2026-04-26 03:02 | 12.60764 | 123.34335 | 32927 ft | 456 kts | 132° |
| 2026-04-26 03:03 | 12.56660 | 123.39284 | 32930 ft | 455 kts | 132° |
| 2026-04-26 03:03 | 12.52572 | 123.44209 | 32938 ft | 455 kts | 132° |
| 2026-04-26 03:04 | 12.48455 | 123.49167 | 32940 ft | 455 kts | 132° |
| 2026-04-26 03:04 | 12.44362 | 123.54094 | 32943 ft | 454 kts | 132° |
| 2026-04-26 03:05 | 12.40281 | 123.59003 | 32942 ft | 453 kts | 132° |
| 2026-04-26 03:05 | 12.36193 | 123.63925 | 32942 ft | 453 kts | 131° |
| 2026-04-26 03:06 | 12.32163 | 123.68895 | 32941 ft | 453 kts | 131° |
| 2026-04-26 03:06 | 12.28136 | 123.73877 | 32941 ft | 453 kts | 131° |
| 2026-04-26 03:07 | 12.24102 | 123.78858 | 32941 ft | 452 kts | 131° |
| 2026-04-26 03:07 | 12.20104 | 123.83791 | 32937 ft | 451 kts | 131° |
| 2026-04-26 03:08 | 12.16098 | 123.88728 | 32939 ft | 450 kts | 131° |
| 2026-04-26 03:08 | 12.12099 | 123.93655 | 32936 ft | 449 kts | 131° |
| 2026-04-26 03:09 | 12.08103 | 123.98574 | 32926 ft | 449 kts | 131° |
| 2026-04-26 03:09 | 12.04112 | 124.03485 | 32919 ft | 450 kts | 131° |
| 2026-04-26 03:10 | 12.00106 | 124.08414 | 32915 ft | 450 kts | 131° |
| 2026-04-26 03:10 | 11.96092 | 124.13349 | 32914 ft | 449 kts | 131° |
| 2026-04-26 03:11 | 11.92113 | 124.18240 | 32913 ft | 449 kts | 131° |
| 2026-04-26 03:11 | 11.88109 | 124.23159 | 32913 ft | 448 kts | 131° |
| 2026-04-26 03:12 | 11.84094 | 124.28086 | 32911 ft | 447 kts | 131° |
| 2026-04-26 03:12 | 11.80097 | 124.32993 | 32909 ft | 447 kts | 131° |
| 2026-04-26 03:13 | 11.76117 | 124.37879 | 32908 ft | 447 kts | 131° |
| 2026-04-26 03:13 | 11.72119 | 124.42786 | 32912 ft | 448 kts | 131° |
| 2026-04-26 03:14 | 11.68122 | 124.47691 | 32918 ft | 448 kts | 131° |
| 2026-04-26 03:14 | 11.64135 | 124.52580 | 32927 ft | 447 kts | 131° |
| 2026-04-26 03:15 | 11.60154 | 124.57460 | 32933 ft | 447 kts | 131° |
| 2026-04-26 03:15 | 11.56175 | 124.62335 | 32927 ft | 446 kts | 131° |
| 2026-04-26 03:16 | 11.52206 | 124.67194 | 32930 ft | 446 kts | 131° |
| 2026-04-26 03:16 | 11.48204 | 124.72088 | 32923 ft | 446 kts | 131° |
| 2026-04-26 03:17 | 11.44221 | 124.76950 | 32918 ft | 446 kts | 131° |
| 2026-04-26 03:17 | 11.40236 | 124.81815 | 32920 ft | 447 kts | 130° |
| 2026-04-26 03:18 | 11.36238 | 124.86696 | 32919 ft | 447 kts | 131° |
| 2026-04-26 03:18 | 11.32262 | 124.91547 | 32918 ft | 446 kts | 131° |
| 2026-04-26 03:19 | 11.28197 | 124.96336 | 32918 ft | 446 kts | 135° |
| 2026-04-26 03:19 | 11.23374 | 125.00348 | 32919 ft | 445 kts | 147° |
| 2026-04-26 03:20 | 11.17887 | 125.03220 | 32922 ft | 445 kts | 159° |
| 2026-04-26 03:20 | 11.11891 | 125.04923 | 32925 ft | 446 kts | 168° |
| 2026-04-26 03:21 | 11.05785 | 125.06163 | 32919 ft | 447 kts | 168° |
| 2026-04-26 03:21 | 10.99660 | 125.07394 | 32918 ft | 447 kts | 168° |
| 2026-04-26 03:22 | 10.93525 | 125.08638 | 32916 ft | 447 kts | 168° |
| 2026-04-26 03:22 | 10.87416 | 125.09879 | 32912 ft | 446 kts | 168° |
| 2026-04-26 03:23 | 10.81291 | 125.11279 | 32902 ft | 447 kts | 164° |
| 2026-04-26 03:23 | 10.75352 | 125.13145 | 32894 ft | 447 kts | 162° |
| 2026-04-26 03:24 | 10.69364 | 125.15086 | 32895 ft | 448 kts | 162° |
| 2026-04-26 03:24 | 10.63421 | 125.17013 | 32901 ft | 448 kts | 162° |
| 2026-04-26 03:25 | 10.57415 | 125.18957 | 32908 ft | 448 kts | 162° |
| 2026-04-26 03:25 | 10.51425 | 125.20893 | 32914 ft | 448 kts | 162° |
| 2026-04-26 03:26 | 10.45486 | 125.22813 | 32620 ft | 439 kts | 162° |
| 2026-04-26 03:26 | 10.42620 | 125.23740 | 31589 ft | 436 kts | 162° |
| 2026-04-26 03:26 | 10.39722 | 125.24678 | 30118 ft | 439 kts | 162° |
| 2026-04-26 03:27 | 10.36813 | 125.25620 | 28642 ft | 440 kts | 162° |
| 2026-04-26 03:27 | 10.33943 | 125.26547 | 27365 ft | 435 kts | 162° |
| 2026-04-26 03:27 | 10.31061 | 125.27475 | 26155 ft | 429 kts | 162° |
| 2026-04-26 03:27 | 10.28261 | 125.28377 | 25122 ft | 419 kts | 162° |
| 2026-04-26 03:28 | 10.25500 | 125.29266 | 24645 ft | 404 kts | 162° |
| 2026-04-26 03:28 | 10.22865 | 125.30116 | 24174 ft | 395 kts | 162° |
| 2026-04-26 03:28 | 10.20265 | 125.30955 | 23684 ft | 392 kts | 162° |
| 2026-04-26 03:28 | 10.17643 | 125.31800 | 23181 ft | 390 kts | 162° |
| 2026-04-26 03:29 | 10.15045 | 125.32638 | 22678 ft | 388 kts | 161° |
| 2026-04-26 03:29 | 10.12487 | 125.33463 | 22190 ft | 386 kts | 161° |
| 2026-04-26 03:29 | 10.09918 | 125.34293 | 21726 ft | 385 kts | 161° |
| 2026-04-26 03:29 | 10.07379 | 125.35112 | 21262 ft | 383 kts | 161° |
| 2026-04-26 03:30 | 10.04847 | 125.35928 | 20792 ft | 382 kts | 161° |
| 2026-04-26 03:30 | 10.02314 | 125.36745 | 20318 ft | 381 kts | 161° |
| 2026-04-26 03:30 | 9.99779 | 125.37563 | 19841 ft | 380 kts | 161° |
| 2026-04-26 03:30 | 9.97260 | 125.38374 | 19368 ft | 379 kts | 162° |
| 2026-04-26 03:31 | 9.94727 | 125.39190 | 18880 ft | 378 kts | 162° |
| 2026-04-26 03:31 | 9.92235 | 125.39993 | 18397 ft | 377 kts | 162° |
| 2026-04-26 03:31 | 9.89829 | 125.40768 | 17928 ft | 376 kts | 162° |
| 2026-04-26 03:31 | 9.87349 | 125.41566 | 17437 ft | 375 kts | 162° |
| 2026-04-26 03:32 | 9.84783 | 125.42391 | 16925 ft | 374 kts | 162° |
| 2026-04-26 03:32 | 9.82277 | 125.43197 | 16440 ft | 373 kts | 161° |
| 2026-04-26 03:32 | 9.79793 | 125.43996 | 15971 ft | 371 kts | 161° |
| 2026-04-26 03:32 | 9.77337 | 125.44785 | 15498 ft | 369 kts | 161° |
| 2026-04-26 03:33 | 9.74880 | 125.45575 | 15012 ft | 367 kts | 161° |
| 2026-04-26 03:33 | 9.72416 | 125.46367 | 14524 ft | 366 kts | 161° |
| 2026-04-26 03:33 | 9.69969 | 125.47000 | 14028 ft | 365 kts | 172° |
| 2026-04-26 03:33 | 9.67409 | 125.46912 | 13538 ft | 365 kts | 190° |
| 2026-04-26 03:34 | 9.64959 | 125.46244 | 13072 ft | 363 kts | 195° |
| 2026-04-26 03:34 | 9.62529 | 125.45486 | 12615 ft | 360 kts | 196° |
| 2026-04-26 03:34 | 9.60122 | 125.44730 | 12155 ft | 357 kts | 196° |
| 2026-04-26 03:34 | 9.57743 | 125.43990 | 11706 ft | 354 kts | 195° |
| 2026-04-26 03:35 | 9.55390 | 125.43265 | 11255 ft | 351 kts | 195° |
| 2026-04-26 03:35 | 9.53070 | 125.42556 | 10813 ft | 347 kts | 195° |
| 2026-04-26 03:35 | 9.50735 | 125.41845 | 10367 ft | 344 kts | 195° |
| 2026-04-26 03:35 | 9.48450 | 125.41151 | 10054 ft | 336 kts | 195° |
| 2026-04-26 03:36 | 9.46264 | 125.40485 | 9991 ft | 320 kts | 195° |
| 2026-04-26 03:36 | 9.44158 | 125.39845 | 9772 ft | 311 kts | 195° |
| 2026-04-26 03:36 | 9.42080 | 125.39216 | 9357 ft | 310 kts | 194° |
| 2026-04-26 03:36 | 9.40026 | 125.38593 | 8972 ft | 308 kts | 194° |
| 2026-04-26 03:37 | 9.37970 | 125.37971 | 8591 ft | 306 kts | 194° |
| 2026-04-26 03:37 | 9.35938 | 125.37356 | 8222 ft | 304 kts | 194° |
| 2026-04-26 03:37 | 9.33904 | 125.36740 | 7853 ft | 301 kts | 194° |
| 2026-04-26 03:37 | 9.31905 | 125.36132 | 7496 ft | 298 kts | 194° |
| 2026-04-26 03:38 | 9.29904 | 125.35525 | 7144 ft | 295 kts | 194° |
| 2026-04-26 03:38 | 9.27943 | 125.34928 | 6796 ft | 291 kts | 194° |
| 2026-04-26 03:38 | 9.26038 | 125.34347 | 6452 ft | 279 kts | 194° |
| 2026-04-26 03:38 | 9.24209 | 125.33789 | 6125 ft | 269 kts | 194° |
| 2026-04-26 03:39 | 9.22424 | 125.33245 | 5804 ft | 263 kts | 194° |
| 2026-04-26 03:39 | 9.20692 | 125.32717 | 5485 ft | 260 kts | 194° |
| 2026-04-26 03:39 | 9.18951 | 125.32188 | 5163 ft | 258 kts | 194° |
| 2026-04-26 03:39 | 9.17240 | 125.31670 | 4845 ft | 257 kts | 194° |
| 2026-04-26 03:40 | 9.15529 | 125.31150 | 4531 ft | 255 kts | 194° |
| 2026-04-26 03:40 | 9.13827 | 125.30631 | 4218 ft | 253 kts | 194° |
| 2026-04-26 03:40 | 9.12144 | 125.30121 | 3905 ft | 252 kts | 194° |
| 2026-04-26 03:40 | 9.10455 | 125.29614 | 3604 ft | 252 kts | 194° |
| 2026-04-26 03:41 | 9.08763 | 125.29105 | 3290 ft | 251 kts | 194° |
| 2026-04-26 03:41 | 9.07087 | 125.28603 | 3037 ft | 246 kts | 193° |
| 2026-04-26 03:41 | 9.05441 | 125.28486 | 2969 ft | 226 kts | 160° |
| 2026-04-26 03:41 | 9.04209 | 125.29299 | 2972 ft | 203 kts | 124° |
| 2026-04-26 03:42 | 9.03547 | 125.30518 | 3030 ft | 195 kts | 112° |
| 2026-04-26 03:42 | 9.03013 | 125.31706 | 3045 ft | 178 kts | 112° |
| 2026-04-26 03:42 | 9.02505 | 125.32812 | 2908 ft | 166 kts | 112° |
| 2026-04-26 03:42 | 9.02028 | 125.33823 | 2735 ft | 155 kts | 113° |
| 2026-04-26 03:43 | 9.01573 | 125.34771 | 2578 ft | 143 kts | 113° |
| 2026-04-26 03:43 | 9.01137 | 125.35671 | 2455 ft | 143 kts | 113° |
| 2026-04-26 03:43 | 9.00699 | 125.36571 | 2261 ft | 142 kts | 112° |
| 2026-04-26 03:43 | 9.00260 | 125.37471 | 2070 ft | 141 kts | 112° |
| 2026-04-26 03:44 | 8.99825 | 125.38356 | 1885 ft | 141 kts | 112° |
| 2026-04-26 03:44 | 8.99389 | 125.39247 | 1697 ft | 140 kts | 112° |
| 2026-04-26 03:44 | 8.98956 | 125.40132 | 1511 ft | 140 kts | 112° |
| 2026-04-26 03:44 | 8.98520 | 125.41019 | 1323 ft | 140 kts | 112° |
| 2026-04-26 03:45 | 8.98085 | 125.41904 | 1136 ft | 139 kts | 112° |
| 2026-04-26 03:45 | 8.97658 | 125.42777 | 955 ft | 139 kts | 112° |
| 2026-04-26 03:45 | 8.97228 | 125.43653 | 774 ft | 139 kts | 112° |
| 2026-04-26 03:45 | 8.96800 | 125.44530 | 580 ft | 138 kts | 111° |
| 2026-04-26 03:46 | 8.96370 | 125.45397 | 375 ft | 138 kts | 112° |
| 2026-04-26 03:46 | 8.95936 | 125.46275 | 187 ft | 136 kts | 110° |
| 2026-04-26 03:46 | 8.95535 | 125.47096 | 41 ft | 128 kts | 110° |
| 2026-04-26 03:47 | 8.94943 | 125.48307 | 54 ft | 64 kts | 116° |
| 2026-04-26 03:47 | 8.94833 | 125.48513 | 62 ft | 16 kts | 127° |
| 2026-04-26 03:47 | 8.94820 | 125.48557 | 63 ft | 1 kts | 40° |
| 2026-04-26 03:47 | 8.94828 | 125.48552 | 63 ft | 2 kts | 283° |
| 2026-04-26 03:48 | 8.94836 | 125.48523 | 62 ft | 5 kts | 289° |
| 2026-04-26 03:48 | 8.94861 | 125.48471 | 61 ft | 10 kts | 297° |
| 2026-04-26 03:48 | 8.94902 | 125.48392 | 57 ft | 14 kts | 297° |
| 2026-04-26 03:48 | 8.94916 | 125.48323 | 54 ft | 9 kts | 255° |
| 2026-04-26 03:49 | 8.94897 | 125.48267 | 53 ft | 4 kts | 248° |
| 2026-04-26 03:49 | 8.94891 | 125.48236 | 52 ft | 3 kts | 274° |
| 2026-04-26 03:49 | 8.94898 | 125.48212 | 52 ft | 4 kts | 272° |
| 2026-04-26 03:49 | 8.94883 | 125.48181 | 51 ft | 4 kts | 238° |
| 2026-04-26 03:50 | 8.94872 | 125.48164 | 51 ft | 1 kts | 236° |
| 2026-04-26 03:50 | 8.94868 | 125.48159 | 51 ft | 0 kts | 236° |